sensor_id;sensor_type;location;lat;lon;timestamp;P1;durP1;ratioP1;P2;durP2;ratioP2
27113;SDS011;14648;49.730;8.614;2023-06-24T00:01:39;3.70;;;3.40;;
27113;SDS011;14648;49.730;8.614;2023-06-24T00:04:05;7.70;;;3.73;;
27113;SDS011;14648;49.730;8.614;2023-06-24T00:06:30;3.50;;;3.20;;
27113;SDS011;14648;49.730;8.614;2023-06-24T00:08:56;5.33;;;4.43;;
27113;SDS011;14648;49.730;8.614;2023-06-24T00:11:26;4.90;;;4.23;;
27113;SDS011;14648;49.730;8.614;2023-06-24T00:13:54;6.77;;;3.70;;
27113;SDS011;14648;49.730;8.614;2023-06-24T00:16:20;4.07;;;3.70;;
27113;SDS011;14648;49.730;8.614;2023-06-24T00:18:52;4.93;;;4.40;;
27113;SDS011;14648;49.730;8.614;2023-06-24T00:21:26;3.93;;;3.63;;
27113;SDS011;14648;49.730;8.614;2023-06-24T00:23:56;5.10;;;3.80;;
27113;SDS011;14648;49.730;8.614;2023-06-24T00:26:23;3.90;;;3.60;;
27113;SDS011;14648;49.730;8.614;2023-06-24T00:28:49;6.70;;;4.10;;
27113;SDS011;14648;49.730;8.614;2023-06-24T00:31:15;4.90;;;4.40;;
27113;SDS011;14648;49.730;8.614;2023-06-24T00:33:41;4.60;;;3.63;;
27113;SDS011;14648;49.730;8.614;2023-06-24T00:36:07;5.73;;;4.27;;
27113;SDS011;14648;49.730;8.614;2023-06-24T00:38:36;4.90;;;4.40;;
27113;SDS011;14648;49.730;8.614;2023-06-24T00:41:03;3.77;;;3.40;;
27113;SDS011;14648;49.730;8.614;2023-06-24T00:43:29;6.47;;;4.47;;
27113;SDS011;14648;49.730;8.614;2023-06-24T00:45:55;4.07;;;3.77;;
27113;SDS011;14648;49.730;8.614;2023-06-24T00:48:22;4.73;;;4.23;;
27113;SDS011;14648;49.730;8.614;2023-06-24T00:50:49;9.93;;;4.20;;
27113;SDS011;14648;49.730;8.614;2023-06-24T00:53:16;4.20;;;3.80;;
27113;SDS011;14648;49.730;8.614;2023-06-24T00:55:42;4.47;;;4.07;;
27113;SDS011;14648;49.730;8.614;2023-06-24T00:58:10;5.33;;;4.30;;
27113;SDS011;14648;49.730;8.614;2023-06-24T01:00:44;4.57;;;4.07;;
27113;SDS011;14648;49.730;8.614;2023-06-24T01:03:13;3.77;;;3.47;;
27113;SDS011;14648;49.730;8.614;2023-06-24T01:05:40;4.83;;;4.40;;
27113;SDS011;14648;49.730;8.614;2023-06-24T01:08:06;4.43;;;4.03;;
27113;SDS011;14648;49.730;8.614;2023-06-24T01:10:32;5.30;;;4.33;;
27113;SDS011;14648;49.730;8.614;2023-06-24T01:12:58;8.47;;;4.53;;
27113;SDS011;14648;49.730;8.614;2023-06-24T01:15:24;5.80;;;4.33;;
27113;SDS011;14648;49.730;8.614;2023-06-24T01:17:59;5.57;;;4.60;;
27113;SDS011;14648;49.730;8.614;2023-06-24T01:20:41;5.97;;;3.63;;
27113;SDS011;14648;49.730;8.614;2023-06-24T01:33:36;7.87;;;4.20;;
27113;SDS011;14648;49.730;8.614;2023-06-24T01:36:10;4.93;;;4.53;;
27113;SDS011;14648;49.730;8.614;2023-06-24T01:38:49;3.90;;;3.43;;
27113;SDS011;14648;49.730;8.614;2023-06-24T01:41:22;6.70;;;4.70;;
27113;SDS011;14648;49.730;8.614;2023-06-24T01:43:53;6.90;;;4.70;;
27113;SDS011;14648;49.730;8.614;2023-06-24T01:46:22;6.10;;;4.77;;
27113;SDS011;14648;49.730;8.614;2023-06-24T01:48:50;4.70;;;4.10;;
27113;SDS011;14648;49.730;8.614;2023-06-24T01:51:21;5.17;;;4.67;;
27113;SDS011;14648;49.730;8.614;2023-06-24T01:53:53;7.10;;;4.60;;
27113;SDS011;14648;49.730;8.614;2023-06-24T01:56:25;4.83;;;4.00;;
27113;SDS011;14648;49.730;8.614;2023-06-24T01:58:53;5.60;;;4.10;;
27113;SDS011;14648;49.730;8.614;2023-06-24T02:01:21;9.53;;;4.60;;
27113;SDS011;14648;49.730;8.614;2023-06-24T02:03:48;4.83;;;4.43;;
27113;SDS011;14648;49.730;8.614;2023-06-24T02:06:16;5.40;;;4.30;;
27113;SDS011;14648;49.730;8.614;2023-06-24T02:08:43;4.70;;;4.23;;
27113;SDS011;14648;49.730;8.614;2023-06-24T02:11:13;5.10;;;4.33;;
27113;SDS011;14648;49.730;8.614;2023-06-24T02:13:39;7.10;;;4.77;;
27113;SDS011;14648;49.730;8.614;2023-06-24T02:16:07;5.80;;;5.10;;
27113;SDS011;14648;49.730;8.614;2023-06-24T02:18:34;9.90;;;4.80;;
27113;SDS011;14648;49.730;8.614;2023-06-24T02:21:03;5.10;;;4.60;;
27113;SDS011;14648;49.730;8.614;2023-06-24T02:23:30;4.90;;;4.37;;
27113;SDS011;14648;49.730;8.614;2023-06-24T02:25:57;5.27;;;4.80;;
27113;SDS011;14648;49.730;8.614;2023-06-24T02:28:24;6.63;;;4.30;;
27113;SDS011;14648;49.730;8.614;2023-06-24T02:30:50;8.00;;;4.67;;
27113;SDS011;14648;49.730;8.614;2023-06-24T02:33:16;6.20;;;4.30;;
27113;SDS011;14648;49.730;8.614;2023-06-24T02:35:42;5.13;;;4.27;;
27113;SDS011;14648;49.730;8.614;2023-06-24T02:38:10;4.77;;;4.27;;
27113;SDS011;14648;49.730;8.614;2023-06-24T02:40:36;8.87;;;4.87;;
27113;SDS011;14648;49.730;8.614;2023-06-24T02:43:02;6.73;;;5.20;;
27113;SDS011;14648;49.730;8.614;2023-06-24T02:45:27;5.20;;;4.70;;
27113;SDS011;14648;49.730;8.614;2023-06-24T02:47:54;6.10;;;4.77;;
27113;SDS011;14648;49.730;8.614;2023-06-24T02:50:21;5.40;;;4.70;;
27113;SDS011;14648;49.730;8.614;2023-06-24T02:52:47;9.50;;;5.30;;
27113;SDS011;14648;49.730;8.614;2023-06-24T02:55:13;5.43;;;4.97;;
27113;SDS011;14648;49.730;8.614;2023-06-24T02:57:40;5.53;;;5.03;;
27113;SDS011;14648;49.730;8.614;2023-06-24T03:00:06;5.77;;;5.17;;
27113;SDS011;14648;49.730;8.614;2023-06-24T03:02:39;6.23;;;4.80;;
27113;SDS011;14648;49.730;8.614;2023-06-24T03:05:07;5.27;;;4.60;;
27113;SDS011;14648;49.730;8.614;2023-06-24T03:07:35;9.53;;;4.90;;
27113;SDS011;14648;49.730;8.614;2023-06-24T03:10:03;5.70;;;5.13;;
27113;SDS011;14648;49.730;8.614;2023-06-24T03:12:30;7.73;;;4.97;;
27113;SDS011;14648;49.730;8.614;2023-06-24T03:14:57;6.57;;;4.90;;
27113;SDS011;14648;49.730;8.614;2023-06-24T03:17:22;5.63;;;5.10;;
27113;SDS011;14648;49.730;8.614;2023-06-24T03:19:49;5.37;;;4.47;;
27113;SDS011;14648;49.730;8.614;2023-06-24T03:22:15;4.03;;;3.63;;
27113;SDS011;14648;49.730;8.614;2023-06-24T03:24:42;4.50;;;4.10;;
27113;SDS011;14648;49.730;8.614;2023-06-24T03:27:08;8.53;;;4.80;;
27113;SDS011;14648;49.730;8.614;2023-06-24T03:29:34;4.50;;;3.80;;
27113;SDS011;14648;49.730;8.614;2023-06-24T03:31:59;5.73;;;5.00;;
27113;SDS011;14648;49.730;8.614;2023-06-24T03:34:25;5.60;;;4.93;;
27113;SDS011;14648;49.730;8.614;2023-06-24T03:36:52;4.90;;;4.33;;
27113;SDS011;14648;49.730;8.614;2023-06-24T03:39:19;4.60;;;4.20;;
27113;SDS011;14648;49.730;8.614;2023-06-24T03:41:46;4.70;;;4.20;;
27113;SDS011;14648;49.730;8.614;2023-06-24T03:44:12;4.77;;;4.33;;
27113;SDS011;14648;49.730;8.614;2023-06-24T03:46:38;7.30;;;4.70;;
27113;SDS011;14648;49.730;8.614;2023-06-24T03:49:03;6.03;;;5.00;;
27113;SDS011;14648;49.730;8.614;2023-06-24T03:51:29;7.20;;;5.00;;
27113;SDS011;14648;49.730;8.614;2023-06-24T03:53:56;5.90;;;5.10;;
27113;SDS011;14648;49.730;8.614;2023-06-24T03:56:22;5.27;;;4.77;;
27113;SDS011;14648;49.730;8.614;2023-06-24T03:58:47;5.40;;;4.90;;
27113;SDS011;14648;49.730;8.614;2023-06-24T04:01:13;12.33;;;5.30;;
27113;SDS011;14648;49.730;8.614;2023-06-24T04:03:39;8.13;;;4.87;;
27113;SDS011;14648;49.730;8.614;2023-06-24T04:06:05;7.57;;;4.67;;
27113;SDS011;14648;49.730;8.614;2023-06-24T04:08:30;6.87;;;4.57;;
27113;SDS011;14648;49.730;8.614;2023-06-24T04:10:59;7.07;;;4.97;;
27113;SDS011;14648;49.730;8.614;2023-06-24T04:13:27;12.23;;;6.03;;
27113;SDS011;14648;49.730;8.614;2023-06-24T04:15:53;13.20;;;5.83;;
27113;SDS011;14648;49.730;8.614;2023-06-24T04:18:21;13.43;;;5.03;;
27113;SDS011;14648;49.730;8.614;2023-06-24T04:20:47;6.40;;;5.27;;
27113;SDS011;14648;49.730;8.614;2023-06-24T04:23:13;9.03;;;5.53;;
27113;SDS011;14648;49.730;8.614;2023-06-24T04:25:40;9.03;;;5.30;;
27113;SDS011;14648;49.730;8.614;2023-06-24T04:28:07;10.03;;;5.67;;
27113;SDS011;14648;49.730;8.614;2023-06-24T04:30:33;5.53;;;4.97;;
27113;SDS011;14648;49.730;8.614;2023-06-24T04:33:00;7.00;;;4.83;;
27113;SDS011;14648;49.730;8.614;2023-06-24T04:35:27;8.03;;;5.10;;
27113;SDS011;14648;49.730;8.614;2023-06-24T04:37:52;6.97;;;5.80;;
27113;SDS011;14648;49.730;8.614;2023-06-24T04:40:18;6.30;;;5.30;;
27113;SDS011;14648;49.730;8.614;2023-06-24T04:42:45;10.20;;;5.07;;
27113;SDS011;14648;49.730;8.614;2023-06-24T04:45:11;5.90;;;5.30;;
27113;SDS011;14648;49.730;8.614;2023-06-24T04:47:37;6.13;;;5.17;;
27113;SDS011;14648;49.730;8.614;2023-06-24T04:50:03;9.03;;;5.17;;
27113;SDS011;14648;49.730;8.614;2023-06-24T04:52:29;5.57;;;5.07;;
27113;SDS011;14648;49.730;8.614;2023-06-24T04:54:55;6.40;;;5.23;;
27113;SDS011;14648;49.730;8.614;2023-06-24T04:57:26;8.10;;;5.80;;
27113;SDS011;14648;49.730;8.614;2023-06-24T04:59:53;5.13;;;4.63;;
27113;SDS011;14648;49.730;8.614;2023-06-24T05:02:19;6.17;;;5.10;;
27113;SDS011;14648;49.730;8.614;2023-06-24T05:04:45;6.70;;;5.13;;
27113;SDS011;14648;49.730;8.614;2023-06-24T05:07:10;7.63;;;5.17;;
27113;SDS011;14648;49.730;8.614;2023-06-24T05:09:37;7.17;;;5.50;;
27113;SDS011;14648;49.730;8.614;2023-06-24T05:12:06;6.10;;;5.17;;
27113;SDS011;14648;49.730;8.614;2023-06-24T05:14:35;6.77;;;5.13;;
27113;SDS011;14648;49.730;8.614;2023-06-24T05:17:02;6.83;;;5.70;;
27113;SDS011;14648;49.730;8.614;2023-06-24T05:19:28;9.87;;;5.37;;
27113;SDS011;14648;49.730;8.614;2023-06-24T05:21:54;5.90;;;5.03;;
27113;SDS011;14648;49.730;8.614;2023-06-24T05:24:20;5.80;;;4.90;;
27113;SDS011;14648;49.730;8.614;2023-06-24T05:26:49;8.37;;;5.33;;
27113;SDS011;14648;49.730;8.614;2023-06-24T05:29:16;7.40;;;4.80;;
27113;SDS011;14648;49.730;8.614;2023-06-24T05:31:43;5.40;;;4.70;;
27113;SDS011;14648;49.730;8.614;2023-06-24T05:34:09;8.23;;;4.30;;
27113;SDS011;14648;49.730;8.614;2023-06-24T05:36:35;9.83;;;5.13;;
27113;SDS011;14648;49.730;8.614;2023-06-24T05:39:01;6.67;;;5.23;;
27113;SDS011;14648;49.730;8.614;2023-06-24T05:41:27;6.13;;;4.30;;
27113;SDS011;14648;49.730;8.614;2023-06-24T05:44:11;6.23;;;4.40;;
27113;SDS011;14648;49.730;8.614;2023-06-24T05:46:36;6.13;;;4.40;;
27113;SDS011;14648;49.730;8.614;2023-06-24T05:49:02;12.33;;;5.27;;
27113;SDS011;14648;49.730;8.614;2023-06-24T05:51:29;6.00;;;5.47;;
27113;SDS011;14648;49.730;8.614;2023-06-24T05:53:54;6.43;;;5.10;;
27113;SDS011;14648;49.730;8.614;2023-06-24T05:56:21;5.90;;;5.30;;
27113;SDS011;14648;49.730;8.614;2023-06-24T05:58:47;7.80;;;6.37;;
27113;SDS011;14648;49.730;8.614;2023-06-24T06:01:13;6.47;;;5.50;;
27113;SDS011;14648;49.730;8.614;2023-06-24T06:03:39;8.27;;;6.30;;
27113;SDS011;14648;49.730;8.614;2023-06-24T06:06:05;7.00;;;4.97;;
27113;SDS011;14648;49.730;8.614;2023-06-24T06:08:32;9.20;;;6.23;;
27113;SDS011;14648;49.730;8.614;2023-06-24T06:10:58;10.30;;;6.50;;
27113;SDS011;14648;49.730;8.614;2023-06-24T06:13:27;5.90;;;5.00;;
27113;SDS011;14648;49.730;8.614;2023-06-24T06:15:53;11.03;;;5.90;;
27113;SDS011;14648;49.730;8.614;2023-06-24T06:18:20;7.33;;;5.90;;
27113;SDS011;14648;49.730;8.614;2023-06-24T06:20:45;12.57;;;5.90;;
27113;SDS011;14648;49.730;8.614;2023-06-24T06:23:11;7.23;;;5.40;;
27113;SDS011;14648;49.730;8.614;2023-06-24T06:25:37;14.23;;;5.73;;
27113;SDS011;14648;49.730;8.614;2023-06-24T06:28:03;14.57;;;6.83;;
27113;SDS011;14648;49.730;8.614;2023-06-24T06:30:32;7.30;;;5.37;;
27113;SDS011;14648;49.730;8.614;2023-06-24T06:32:58;14.40;;;6.03;;
27113;SDS011;14648;49.730;8.614;2023-06-24T06:35:24;8.17;;;5.60;;
27113;SDS011;14648;49.730;8.614;2023-06-24T06:37:49;7.80;;;6.10;;
27113;SDS011;14648;49.730;8.614;2023-06-24T06:40:18;7.53;;;5.80;;
27113;SDS011;14648;49.730;8.614;2023-06-24T06:42:47;8.60;;;6.10;;
27113;SDS011;14648;49.730;8.614;2023-06-24T06:45:14;7.00;;;5.60;;
27113;SDS011;14648;49.730;8.614;2023-06-24T06:47:39;5.80;;;5.10;;
27113;SDS011;14648;49.730;8.614;2023-06-24T06:50:05;14.97;;;6.33;;
27113;SDS011;14648;49.730;8.614;2023-06-24T06:52:32;7.00;;;5.00;;
27113;SDS011;14648;49.730;8.614;2023-06-24T06:54:58;6.67;;;5.27;;
27113;SDS011;14648;49.730;8.614;2023-06-24T06:57:24;6.13;;;5.07;;
27113;SDS011;14648;49.730;8.614;2023-06-24T06:59:50;8.13;;;4.77;;
27113;SDS011;14648;49.730;8.614;2023-06-24T07:02:19;5.87;;;4.60;;
27113;SDS011;14648;49.730;8.614;2023-06-24T07:04:45;6.97;;;5.37;;
27113;SDS011;14648;49.730;8.614;2023-06-24T07:07:12;5.57;;;4.37;;
27113;SDS011;14648;49.730;8.614;2023-06-24T07:09:39;12.90;;;6.60;;
27113;SDS011;14648;49.730;8.614;2023-06-24T07:12:05;4.83;;;4.23;;
27113;SDS011;14648;49.730;8.614;2023-06-24T07:14:32;6.53;;;5.70;;
27113;SDS011;14648;49.730;8.614;2023-06-24T07:16:58;8.87;;;6.90;;
27113;SDS011;14648;49.730;8.614;2023-06-24T07:19:23;7.53;;;5.40;;
27113;SDS011;14648;49.730;8.614;2023-06-24T07:21:49;6.80;;;4.90;;
27113;SDS011;14648;49.730;8.614;2023-06-24T07:24:15;12.67;;;6.10;;
27113;SDS011;14648;49.730;8.614;2023-06-24T07:26:40;5.93;;;5.00;;
27113;SDS011;14648;49.730;8.614;2023-06-24T07:29:06;8.70;;;6.03;;
27113;SDS011;14648;49.730;8.614;2023-06-24T07:31:32;5.47;;;4.97;;
27113;SDS011;14648;49.730;8.614;2023-06-24T07:34:01;6.40;;;5.20;;
27113;SDS011;14648;49.730;8.614;2023-06-24T07:36:30;7.63;;;5.43;;
27113;SDS011;14648;49.730;8.614;2023-06-24T07:38:56;6.50;;;4.70;;
27113;SDS011;14648;49.730;8.614;2023-06-24T07:41:25;6.43;;;4.73;;
27113;SDS011;14648;49.730;8.614;2023-06-24T07:43:51;6.20;;;4.83;;
27113;SDS011;14648;49.730;8.614;2023-06-24T07:46:17;8.03;;;4.60;;
27113;SDS011;14648;49.730;8.614;2023-06-24T07:48:43;5.30;;;4.80;;
27113;SDS011;14648;49.730;8.614;2023-06-24T07:51:09;5.30;;;4.90;;
27113;SDS011;14648;49.730;8.614;2023-06-24T07:53:34;5.40;;;4.07;;
27113;SDS011;14648;49.730;8.614;2023-06-24T07:56:00;6.27;;;3.90;;
27113;SDS011;14648;49.730;8.614;2023-06-24T07:58:26;4.70;;;4.17;;
27113;SDS011;14648;49.730;8.614;2023-06-24T08:00:52;4.73;;;4.17;;
27113;SDS011;14648;49.730;8.614;2023-06-24T08:03:17;4.00;;;3.70;;
27113;SDS011;14648;49.730;8.614;2023-06-24T08:05:43;6.37;;;3.50;;
27113;SDS011;14648;49.730;8.614;2023-06-24T08:08:09;4.90;;;4.40;;
27113;SDS011;14648;49.730;8.614;2023-06-24T08:10:37;5.90;;;4.17;;
27113;SDS011;14648;49.730;8.614;2023-06-24T08:13:03;4.63;;;3.93;;
27113;SDS011;14648;49.730;8.614;2023-06-24T08:15:29;5.00;;;4.43;;
27113;SDS011;14648;49.730;8.614;2023-06-24T08:17:55;4.40;;;4.00;;
27113;SDS011;14648;49.730;8.614;2023-06-24T08:20:21;5.73;;;4.90;;
27113;SDS011;14648;49.730;8.614;2023-06-24T08:22:47;4.67;;;3.70;;
27113;SDS011;14648;49.730;8.614;2023-06-24T08:25:13;4.33;;;3.93;;
27113;SDS011;14648;49.730;8.614;2023-06-24T08:27:39;3.77;;;3.47;;
27113;SDS011;14648;49.730;8.614;2023-06-24T08:30:05;4.03;;;3.63;;
27113;SDS011;14648;49.730;8.614;2023-06-24T08:32:32;7.13;;;4.33;;
27113;SDS011;14648;49.730;8.614;2023-06-24T08:34:58;4.60;;;3.50;;
27113;SDS011;14648;49.730;8.614;2023-06-24T08:37:24;5.10;;;3.73;;
27113;SDS011;14648;49.730;8.614;2023-06-24T08:39:50;3.33;;;3.10;;
27113;SDS011;14648;49.730;8.614;2023-06-24T08:42:16;4.93;;;3.33;;
27113;SDS011;14648;49.730;8.614;2023-06-24T08:44:41;3.20;;;2.87;;
27113;SDS011;14648;49.730;8.614;2023-06-24T08:47:07;6.60;;;4.40;;
27113;SDS011;14648;49.730;8.614;2023-06-24T08:49:34;3.80;;;3.50;;
27113;SDS011;14648;49.730;8.614;2023-06-24T08:52:16;4.20;;;3.53;;
27113;SDS011;14648;49.730;8.614;2023-06-24T08:54:45;3.43;;;3.13;;
27113;SDS011;14648;49.730;8.614;2023-06-24T08:57:15;4.60;;;3.67;;
27113;SDS011;14648;49.730;8.614;2023-06-24T08:59:41;3.30;;;3.10;;
27113;SDS011;14648;49.730;8.614;2023-06-24T09:02:07;3.77;;;3.47;;
27113;SDS011;14648;49.730;8.614;2023-06-24T09:04:33;3.27;;;3.07;;
27113;SDS011;14648;49.730;8.614;2023-06-24T09:06:59;6.57;;;3.80;;
27113;SDS011;14648;49.730;8.614;2023-06-24T09:09:28;3.17;;;2.90;;
27113;SDS011;14648;49.730;8.614;2023-06-24T09:11:58;4.27;;;3.13;;
27113;SDS011;14648;49.730;8.614;2023-06-24T09:14:26;5.77;;;4.20;;
27113;SDS011;14648;49.730;8.614;2023-06-24T09:16:56;3.95;;;3.15;;
27113;SDS011;14648;49.730;8.614;2023-06-24T09:19:24;6.07;;;3.70;;
27113;SDS011;14648;49.730;8.614;2023-06-24T09:22:02;4.93;;;4.17;;
27113;SDS011;14648;49.730;8.614;2023-06-24T09:24:32;4.43;;;4.00;;
27113;SDS011;14648;49.730;8.614;2023-06-24T09:26:59;4.70;;;3.92;;
27113;SDS011;14648;49.730;8.614;2023-06-24T09:29:26;4.90;;;3.03;;
27113;SDS011;14648;49.730;8.614;2023-06-24T09:31:53;5.40;;;4.63;;
27113;SDS011;14648;49.730;8.614;2023-06-24T09:34:22;4.03;;;3.42;;
27113;SDS011;14648;49.730;8.614;2023-06-24T09:36:56;4.30;;;3.75;;
27113;SDS011;14648;49.730;8.614;2023-06-24T09:39:23;8.52;;;3.83;;
27113;SDS011;14648;49.730;8.614;2023-06-24T09:41:54;4.30;;;4.00;;
27113;SDS011;14648;49.730;8.614;2023-06-24T09:44:21;6.40;;;4.43;;
27113;SDS011;14648;49.730;8.614;2023-06-24T09:46:47;3.65;;;3.35;;
27113;SDS011;14648;49.730;8.614;2023-06-24T09:49:13;5.13;;;4.05;;
27113;SDS011;14648;49.730;8.614;2023-06-24T09:51:40;4.18;;;3.80;;
27113;SDS011;14648;49.730;8.614;2023-06-24T09:54:10;4.72;;;4.10;;
27113;SDS011;14648;49.730;8.614;2023-06-24T09:56:39;5.47;;;3.85;;
27113;SDS011;14648;49.730;8.614;2023-06-24T09:59:09;3.53;;;3.22;;
27113;SDS011;14648;49.730;8.614;2023-06-24T10:01:38;4.10;;;3.70;;
27113;SDS011;14648;49.730;8.614;2023-06-24T10:04:06;3.58;;;3.25;;
27113;SDS011;14648;49.730;8.614;2023-06-24T10:06:33;3.72;;;3.40;;
27113;SDS011;14648;49.730;8.614;2023-06-24T10:09:00;3.80;;;3.50;;
27113;SDS011;14648;49.730;8.614;2023-06-24T10:11:27;4.25;;;3.78;;
27113;SDS011;14648;49.730;8.614;2023-06-24T10:13:53;4.85;;;4.03;;
27113;SDS011;14648;49.730;8.614;2023-06-24T10:16:20;3.50;;;3.20;;
27113;SDS011;14648;49.730;8.614;2023-06-24T10:18:45;3.55;;;3.22;;
27113;SDS011;14648;49.730;8.614;2023-06-24T10:21:12;3.63;;;3.28;;
27113;SDS011;14648;49.730;8.614;2023-06-24T10:26:28;6.80;;;3.72;;
27113;SDS011;14648;49.730;8.614;2023-06-24T10:29:16;3.78;;;3.47;;
27113;SDS011;14648;49.730;8.614;2023-06-24T10:36:56;6.22;;;4.05;;
27113;SDS011;14648;49.730;8.614;2023-06-24T10:39:39;4.53;;;3.75;;
27113;SDS011;14648;49.730;8.614;2023-06-24T10:47:39;3.67;;;3.35;;
27113;SDS011;14648;49.730;8.614;2023-06-24T10:50:07;4.95;;;4.18;;
27113;SDS011;14648;49.730;8.614;2023-06-24T10:52:37;4.07;;;3.75;;
27113;SDS011;14648;49.730;8.614;2023-06-24T10:55:23;3.67;;;3.38;;
27113;SDS011;14648;49.730;8.614;2023-06-24T10:57:51;4.00;;;3.70;;
27113;SDS011;14648;49.730;8.614;2023-06-24T11:00:17;6.18;;;3.80;;
27113;SDS011;14648;49.730;8.614;2023-06-24T11:02:46;6.70;;;4.13;;
27113;SDS011;14648;49.730;8.614;2023-06-24T11:05:11;4.35;;;3.95;;
27113;SDS011;14648;49.730;8.614;2023-06-24T11:07:37;4.35;;;3.85;;
27113;SDS011;14648;49.730;8.614;2023-06-24T11:10:07;10.50;;;4.90;;
27113;SDS011;14648;49.730;8.614;2023-06-24T11:12:38;8.18;;;4.20;;
27113;SDS011;14648;49.730;8.614;2023-06-24T11:15:09;5.53;;;4.78;;
27113;SDS011;14648;49.730;8.614;2023-06-24T11:17:36;4.72;;;4.10;;
27113;SDS011;14648;49.730;8.614;2023-06-24T11:20:07;3.67;;;3.47;;
27113;SDS011;14648;49.730;8.614;2023-06-24T11:22:35;5.53;;;3.53;;
27113;SDS011;14648;49.730;8.614;2023-06-24T11:25:04;3.90;;;3.60;;
27113;SDS011;14648;49.730;8.614;2023-06-24T11:27:30;3.75;;;3.45;;
27113;SDS011;14648;49.730;8.614;2023-06-24T11:29:58;5.45;;;3.63;;
27113;SDS011;14648;49.730;8.614;2023-06-24T11:32:39;4.15;;;3.63;;
27113;SDS011;14648;49.730;8.614;2023-06-24T11:35:08;3.63;;;3.33;;
27113;SDS011;14648;49.730;8.614;2023-06-24T11:37:35;3.85;;;3.55;;
27113;SDS011;14648;49.730;8.614;2023-06-24T11:40:05;3.50;;;3.20;;
27113;SDS011;14648;49.730;8.614;2023-06-24T11:42:35;4.88;;;3.20;;
27113;SDS011;14648;49.730;8.614;2023-06-24T11:45:03;4.53;;;4.13;;
27113;SDS011;14648;49.730;8.614;2023-06-24T11:47:31;3.70;;;3.40;;
27113;SDS011;14648;49.730;8.614;2023-06-24T11:49:59;3.95;;;3.45;;
27113;SDS011;14648;49.730;8.614;2023-06-24T11:52:40;3.78;;;3.08;;
27113;SDS011;14648;49.730;8.614;2023-06-24T11:55:17;3.92;;;3.63;;
27113;SDS011;14648;49.730;8.614;2023-06-24T11:57:57;3.92;;;3.53;;
27113;SDS011;14648;49.730;8.614;2023-06-24T12:00:42;3.97;;;3.72;;
27113;SDS011;14648;49.730;8.614;2023-06-24T12:03:15;4.85;;;3.13;;
27113;SDS011;14648;49.730;8.614;2023-06-24T12:05:40;3.83;;;3.60;;
27113;SDS011;14648;49.730;8.614;2023-06-24T12:08:12;4.05;;;3.30;;
27113;SDS011;14648;49.730;8.614;2023-06-24T12:10:42;4.07;;;3.25;;
27113;SDS011;14648;49.730;8.614;2023-06-24T12:13:09;10.23;;;3.53;;
27113;SDS011;14648;49.730;8.614;2023-06-24T12:15:35;3.72;;;3.42;;
27113;SDS011;14648;49.730;8.614;2023-06-24T12:18:01;3.88;;;3.47;;
27113;SDS011;14648;49.730;8.614;2023-06-24T12:20:28;4.47;;;4.18;;
27113;SDS011;14648;49.730;8.614;2023-06-24T12:22:54;4.10;;;3.72;;
27113;SDS011;14648;49.730;8.614;2023-06-24T12:25:20;4.18;;;3.88;;
27113;SDS011;14648;49.730;8.614;2023-06-24T12:27:46;4.25;;;3.40;;
27113;SDS011;14648;49.730;8.614;2023-06-24T12:30:12;3.97;;;3.67;;
27113;SDS011;14648;49.730;8.614;2023-06-24T12:32:38;4.75;;;3.30;;
27113;SDS011;14648;49.730;8.614;2023-06-24T12:35:05;3.25;;;2.95;;
27113;SDS011;14648;49.730;8.614;2023-06-24T12:37:34;6.85;;;3.90;;
27113;SDS011;14648;49.730;8.614;2023-06-24T12:40:00;3.78;;;3.47;;
27113;SDS011;14648;49.730;8.614;2023-06-24T12:42:27;4.03;;;3.63;;
27113;SDS011;14648;49.730;8.614;2023-06-24T12:44:53;3.00;;;2.80;;
27113;SDS011;14648;49.730;8.614;2023-06-24T12:47:19;2.58;;;2.38;;
27113;SDS011;14648;49.730;8.614;2023-06-24T12:49:48;3.22;;;3.03;;
27113;SDS011;14648;49.730;8.614;2023-06-24T12:52:14;3.90;;;3.60;;
27113;SDS011;14648;49.730;8.614;2023-06-24T12:54:41;3.70;;;3.20;;
27113;SDS011;14648;49.730;8.614;2023-06-24T12:57:07;3.05;;;2.85;;
27113;SDS011;14648;49.730;8.614;2023-06-24T12:59:32;3.30;;;3.10;;
27113;SDS011;14648;49.730;8.614;2023-06-24T13:01:58;3.88;;;3.63;;
27113;SDS011;14648;49.730;8.614;2023-06-24T13:04:24;4.55;;;4.03;;
27113;SDS011;14648;49.730;8.614;2023-06-24T13:06:52;5.25;;;3.63;;
27113;SDS011;14648;49.730;8.614;2023-06-24T13:09:19;3.38;;;3.08;;
27113;SDS011;14648;49.730;8.614;2023-06-24T13:11:46;3.70;;;3.20;;
27113;SDS011;14648;49.730;8.614;2023-06-24T13:14:13;3.97;;;3.65;;
27113;SDS011;14648;49.730;8.614;2023-06-24T13:16:38;4.10;;;3.70;;
27113;SDS011;14648;49.730;8.614;2023-06-24T13:19:04;3.78;;;3.58;;
27113;SDS011;14648;49.730;8.614;2023-06-24T13:21:30;3.88;;;3.58;;
27113;SDS011;14648;49.730;8.614;2023-06-24T13:23:56;3.67;;;3.22;;
27113;SDS011;14648;49.730;8.614;2023-06-24T13:26:22;3.22;;;2.95;;
27113;SDS011;14648;49.730;8.614;2023-06-24T13:28:49;3.75;;;3.45;;
27113;SDS011;14648;49.730;8.614;2023-06-24T13:31:15;8.85;;;3.78;;
27113;SDS011;14648;49.730;8.614;2023-06-24T13:33:41;5.47;;;3.05;;
27113;SDS011;14648;49.730;8.614;2023-06-24T13:36:07;3.80;;;3.47;;
27113;SDS011;14648;49.730;8.614;2023-06-24T13:38:50;4.57;;;3.25;;
27113;SDS011;14648;49.730;8.614;2023-06-24T13:41:16;4.28;;;3.85;;
27113;SDS011;14648;49.730;8.614;2023-06-24T13:43:42;4.00;;;3.33;;
27113;SDS011;14648;49.730;8.614;2023-06-24T13:46:07;4.05;;;3.55;;
27113;SDS011;14648;49.730;8.614;2023-06-24T13:48:33;3.75;;;3.50;;
27113;SDS011;14648;49.730;8.614;2023-06-24T13:50:59;4.25;;;3.92;;
27113;SDS011;14648;49.730;8.614;2023-06-24T13:53:24;3.22;;;3.03;;
27113;SDS011;14648;49.730;8.614;2023-06-24T13:55:50;3.15;;;2.95;;
27113;SDS011;14648;49.730;8.614;2023-06-24T13:58:16;4.93;;;3.30;;
27113;SDS011;14648;49.730;8.614;2023-06-24T14:00:41;2.90;;;2.70;;
27113;SDS011;14648;49.730;8.614;2023-06-24T14:03:07;4.28;;;3.10;;
27113;SDS011;14648;49.730;8.614;2023-06-24T14:05:33;3.30;;;2.80;;
27113;SDS011;14648;49.730;8.614;2023-06-24T14:07:58;2.58;;;2.38;;
27113;SDS011;14648;49.730;8.614;2023-06-24T14:10:24;3.15;;;2.95;;
27113;SDS011;14648;49.730;8.614;2023-06-24T14:12:50;3.20;;;3.00;;
27113;SDS011;14648;49.730;8.614;2023-06-24T14:15:15;3.72;;;3.42;;
27113;SDS011;14648;49.730;8.614;2023-06-24T14:17:41;2.33;;;2.20;;
27113;SDS011;14648;49.730;8.614;2023-06-24T14:20:07;4.18;;;3.55;;
27113;SDS011;14648;49.730;8.614;2023-06-24T14:22:33;2.83;;;2.67;;
27113;SDS011;14648;49.730;8.614;2023-06-24T14:24:59;3.60;;;3.33;;
27113;SDS011;14648;49.730;8.614;2023-06-24T14:27:25;3.50;;;3.30;;
27113;SDS011;14648;49.730;8.614;2023-06-24T14:29:50;3.50;;;3.30;;
27113;SDS011;14648;49.730;8.614;2023-06-24T14:32:16;3.50;;;3.20;;
27113;SDS011;14648;49.730;8.614;2023-06-24T14:34:42;5.32;;;2.85;;
27113;SDS011;14648;49.730;8.614;2023-06-24T14:37:08;4.32;;;3.10;;
27113;SDS011;14648;49.730;8.614;2023-06-24T14:39:33;3.97;;;3.67;;
27113;SDS011;14648;49.730;8.614;2023-06-24T14:41:59;3.50;;;3.22;;
27113;SDS011;14648;49.730;8.614;2023-06-24T14:44:25;6.55;;;2.95;;
27113;SDS011;14648;49.730;8.614;2023-06-24T14:46:50;3.60;;;3.38;;
27113;SDS011;14648;49.730;8.614;2023-06-24T14:49:16;3.25;;;3.03;;
27113;SDS011;14648;49.730;8.614;2023-06-24T14:51:42;4.97;;;3.42;;
27113;SDS011;14648;49.730;8.614;2023-06-24T14:54:08;3.80;;;3.60;;
27113;SDS011;14648;49.730;8.614;2023-06-24T14:56:33;3.75;;;3.55;;
27113;SDS011;14648;49.730;8.614;2023-06-24T14:58:59;3.55;;;3.25;;
27113;SDS011;14648;49.730;8.614;2023-06-24T15:01:25;3.67;;;3.38;;
27113;SDS011;14648;49.730;8.614;2023-06-24T15:03:50;3.88;;;3.58;;
27113;SDS011;14648;49.730;8.614;2023-06-24T15:06:16;3.22;;;3.03;;
27113;SDS011;14648;49.730;8.614;2023-06-24T15:08:41;3.90;;;3.60;;
27113;SDS011;14648;49.730;8.614;2023-06-24T15:11:07;3.38;;;3.08;;
27113;SDS011;14648;49.730;8.614;2023-06-24T15:13:33;3.05;;;2.80;;